Terminal Aerodrome Forecast
Issued by NWS

Home | Current Version | Previous Version | Graphics & Text | Print | Product List | Glossary On
Versions: 1 2 3 4 5 6 7 8 9 10 11 12
000
FTUS43 KICT 180520
TAFHUT
TAF
KHUT 180520Z 1806/1906 15008KT P6SM SCT250
     FM181400 19010KT P6SM SCT250
     FM181800 18012G20KT P6SM SCT050
     FM190100 16008KT P6SM SCT250=

USA.gov is the U.S. government's official web portal to all federal, state and local government web resources and services.